Terminal Aerodrome Forecast
Issued by NWS

Home | Current Version | Previous Version | Text Only | Print | Product List | Glossary On
Versions: 1 2 3 4 5 6 7 8 9 10 11 12 13 14 15 16 17 18 19 20 21 22 23 24 25 26 27 28 29 30 31 32 33 34 35 36 37
000
FTUS43 KGRB 200500
TAFRHI
TAF
KRHI 200520Z 2006/2106 22010G17KT P6SM BKN020 OVC035 WS015/24040KT
     FM200700 22008KT 4SM BR SCT008 OVC015 WS015/24040KT
      TEMPO 2007/2009 2SM BR OVC006
     FM200900 23008KT 3SM BR OVC006
     FM201400 26009G15KT P6SM BKN015
     FM201700 27011G18KT P6SM SCT025 SCT100
     FM210100 VRB03KT P6SM SCT020 OVC035
      TEMPO 2102/2106 3SM SHRA BR OVC012=

USA.gov is the U.S. government's official web portal to all federal, state and local government web resources and services.